createdAt,value
2018-07-09T00:02:16.316Z,2.70
2018-07-09T00:04:43.897Z,2.70
2018-07-09T00:07:11.442Z,3.00
2018-07-09T00:09:39.077Z,3.37
2018-07-09T00:12:06.725Z,2.53
2018-07-09T00:14:34.296Z,3.13
2018-07-09T00:17:01.828Z,3.60
2018-07-09T00:19:29.565Z,3.10
2018-07-09T00:21:57.129Z,3.37
2018-07-09T00:24:24.795Z,3.43
2018-07-09T00:26:52.357Z,3.30
2018-07-09T00:29:19.933Z,3.27
2018-07-09T00:31:48.088Z,3.63
2018-07-09T00:34:15.721Z,3.33
2018-07-09T00:36:44.063Z,3.00
2018-07-09T00:39:11.510Z,3.60
2018-07-09T00:41:39.158Z,3.47
2018-07-09T00:44:06.765Z,3.00
2018-07-09T00:46:34.399Z,3.40
2018-07-09T00:49:02.117Z,3.60
2018-07-09T00:51:30.082Z,3.87
2018-07-09T00:53:57.793Z,3.47
2018-07-09T00:56:25.409Z,3.20
2018-07-09T00:58:52.941Z,3.50
2018-07-09T01:01:20.499Z,3.90
2018-07-09T01:03:48.031Z,3.80
2018-07-09T01:06:15.602Z,3.20
2018-07-09T01:08:43.681Z,3.17
2018-07-09T01:11:22.435Z,2.70
2018-07-09T01:13:49.968Z,3.40
2018-07-09T01:16:17.566Z,3.90
2018-07-09T01:18:45.137Z,4.00
2018-07-09T01:21:13.938Z,4.10
2018-07-09T01:23:41.562Z,3.93
2018-07-09T01:26:09.349Z,4.43
2018-07-09T01:28:37.808Z,3.67
2018-07-09T01:31:05.439Z,4.30
2018-07-09T01:33:33.071Z,4.10
2018-07-09T01:36:00.598Z,4.20
2018-07-09T01:38:28.114Z,4.00
2018-07-09T01:40:55.717Z,3.90
2018-07-09T01:43:23.243Z,4.70
2018-07-09T01:45:50.778Z,4.27
2018-07-09T01:48:18.304Z,3.80
2018-07-09T01:50:45.870Z,3.60
2018-07-09T01:53:13.400Z,4.37
2018-07-09T01:55:40.962Z,4.00
2018-07-09T01:58:08.526Z,4.30
2018-07-09T02:00:36.064Z,4.30
2018-07-09T02:03:03.670Z,4.10
2018-07-09T02:05:31.207Z,4.20
2018-07-09T02:07:58.776Z,4.63
2018-07-09T02:10:26.382Z,4.23
2018-07-09T02:12:53.956Z,4.47
2018-07-09T02:15:21.756Z,4.27
2018-07-09T02:17:49.276Z,4.37
2018-07-09T02:20:16.890Z,4.23
2018-07-09T02:22:44.440Z,4.40
2018-07-09T02:25:11.999Z,4.50
2018-07-09T02:27:39.575Z,4.27
2018-07-09T02:30:07.161Z,4.20
2018-07-09T02:32:34.776Z,4.87
2018-07-09T02:35:02.412Z,4.57
2018-07-09T02:37:30.022Z,4.87
2018-07-09T02:39:57.570Z,4.80
2018-07-09T02:42:25.156Z,4.97
2018-07-09T02:44:52.840Z,4.60
2018-07-09T02:47:20.382Z,5.53
2018-07-09T02:49:47.956Z,5.00
2018-07-09T02:52:15.520Z,4.50
2018-07-09T02:54:43.132Z,5.00
2018-07-09T02:57:10.703Z,5.13
2018-07-09T02:59:38.324Z,5.83
2018-07-09T03:02:06.041Z,4.90
2018-07-09T03:04:33.664Z,5.30
2018-07-09T03:07:01.198Z,4.90
2018-07-09T03:09:28.803Z,5.23
2018-07-09T03:11:56.603Z,6.07
2018-07-09T03:14:24.169Z,4.60
2018-07-09T03:16:51.742Z,4.90
2018-07-09T03:19:19.366Z,5.27
2018-07-09T03:21:46.964Z,5.43
2018-07-09T03:24:14.498Z,5.63
2018-07-09T03:26:42.197Z,6.07
2018-07-09T03:29:09.934Z,5.73
2018-07-09T03:31:37.539Z,6.30
2018-07-09T03:34:05.150Z,5.87
2018-07-09T03:36:32.719Z,5.70
2018-07-09T03:39:00.251Z,6.10
2018-07-09T03:41:27.817Z,7.07
2018-07-09T03:43:56.309Z,6.20
2018-07-09T03:46:23.905Z,6.07
2018-07-09T03:48:51.431Z,6.77
2018-07-09T03:51:19.005Z,6.30
2018-07-09T03:53:46.561Z,6.60
2018-07-09T03:56:14.145Z,7.40
2018-07-09T03:58:41.751Z,6.47
2018-07-09T04:01:09.342Z,8.03
2018-07-09T04:03:36.899Z,8.33
2018-07-09T04:06:04.471Z,8.53
2018-07-09T04:08:32.006Z,8.70
2018-07-09T04:10:59.560Z,9.63
2018-07-09T04:13:27.068Z,10.40
2018-07-09T04:15:54.664Z,9.40
2018-07-09T04:18:23.730Z,9.10
2018-07-09T04:20:52.099Z,10.67
2018-07-09T04:23:19.694Z,8.60
2018-07-09T04:25:48.965Z,7.60
2018-07-09T04:28:16.512Z,6.10
2018-07-09T04:30:44.061Z,6.10
2018-07-09T04:33:11.618Z,6.70
2018-07-09T04:35:39.187Z,7.50
2018-07-09T04:38:07.426Z,6.50
2018-07-09T04:40:35.836Z,7.10
2018-07-09T04:43:03.386Z,6.33
2018-07-09T04:45:30.942Z,7.60
2018-07-09T04:47:58.488Z,7.80
2018-07-09T04:50:26.238Z,7.73
2018-07-09T04:52:53.999Z,6.63
2018-07-09T04:55:24.456Z,7.43
2018-07-09T04:57:52.344Z,7.47
2018-07-09T05:00:19.904Z,7.20
2018-07-09T05:02:47.449Z,7.57
2018-07-09T05:05:14.986Z,7.47
2018-07-09T05:07:42.512Z,7.20
2018-07-09T05:10:10.078Z,7.97
2018-07-09T05:12:37.705Z,7.20
2018-07-09T05:15:05.298Z,8.90
2018-07-09T05:17:33.120Z,7.70
2018-07-09T05:20:02.203Z,7.47
2018-07-09T05:22:29.958Z,9.40
2018-07-09T05:24:57.411Z,9.33
2018-07-09T05:27:24.998Z,7.80
2018-07-09T05:29:52.570Z,8.20
2018-07-09T05:32:20.521Z,7.30
2018-07-09T05:34:48.924Z,8.37
2018-07-09T05:37:16.589Z,7.10
2018-07-09T05:39:44.738Z,6.93
2018-07-09T05:42:12.310Z,6.17
2018-07-09T05:44:39.957Z,6.43
2018-07-09T05:47:08.102Z,5.83
2018-07-09T05:49:35.722Z,6.70
2018-07-09T05:52:04.118Z,5.80
2018-07-09T05:54:31.651Z,6.37
2018-07-09T05:56:59.231Z,6.10
2018-07-09T05:59:28.414Z,6.57
2018-07-09T06:01:56.153Z,6.00
2018-07-09T06:04:23.875Z,5.87
2018-07-09T06:06:52.005Z,6.80
2018-07-09T06:09:19.820Z,6.17
2018-07-09T06:11:47.379Z,6.00
2018-07-09T06:14:15.170Z,6.73
2018-07-09T06:16:42.747Z,6.20
2018-07-09T06:19:10.311Z,5.70
2018-07-09T06:21:37.893Z,6.50
2018-07-09T06:24:05.568Z,5.90
2018-07-09T06:26:33.143Z,5.80
2018-07-09T06:29:00.715Z,6.40
2018-07-09T06:31:29.939Z,5.73
2018-07-09T06:33:57.886Z,5.50
2018-07-09T06:36:25.550Z,5.70
2018-07-09T06:38:54.385Z,6.00
2018-07-09T06:41:21.942Z,6.20
2018-07-09T06:43:49.489Z,5.33
2018-07-09T06:46:17.624Z,6.73
2018-07-09T06:48:45.167Z,6.77
2018-07-09T06:51:12.722Z,5.60
2018-07-09T06:53:40.308Z,5.20
2018-07-09T06:56:07.864Z,5.20
2018-07-09T06:58:35.443Z,5.90
2018-07-09T07:01:03.108Z,5.13
2018-07-09T07:03:30.684Z,5.90
2018-07-09T07:05:58.288Z,4.83
2018-07-09T07:08:25.884Z,5.90
2018-07-09T07:10:53.464Z,6.00
2018-07-09T07:13:21.084Z,6.10
2018-07-09T07:15:48.635Z,5.17
2018-07-09T07:18:16.214Z,6.70
2018-07-09T07:20:43.842Z,6.70
2018-07-09T07:23:11.438Z,6.73
2018-07-09T07:25:38.997Z,6.70
2018-07-09T07:28:06.584Z,5.47
2018-07-09T07:30:34.215Z,6.07
2018-07-09T07:33:01.807Z,6.53
2018-07-09T07:35:29.410Z,6.07
2018-07-09T07:37:57.019Z,6.77
2018-07-09T07:40:24.568Z,5.87
2018-07-09T07:42:52.410Z,7.20
2018-07-09T07:45:19.937Z,5.60
2018-07-09T07:47:47.497Z,6.10
2018-07-09T07:50:15.170Z,5.70
2018-07-09T07:52:42.739Z,5.17
2018-07-09T07:55:10.328Z,5.90
2018-07-09T07:57:37.915Z,5.90
2018-07-09T08:00:06.199Z,6.67
2018-07-09T08:02:33.757Z,6.60
2018-07-09T08:05:01.299Z,6.43
2018-07-09T08:07:28.881Z,5.80
2018-07-09T08:09:56.438Z,5.87
2018-07-09T08:14:51.713Z,5.60
2018-07-09T08:17:19.375Z,6.87
2018-07-09T08:19:47.021Z,6.77
2018-07-09T08:22:14.579Z,5.27
2018-07-09T08:24:42.126Z,5.90
2018-07-09T08:27:09.725Z,6.23
2018-07-09T08:29:37.284Z,5.83
2018-07-09T08:32:04.901Z,7.10
2018-07-09T08:34:32.439Z,6.00
2018-07-09T08:36:59.979Z,6.80
2018-07-09T08:39:27.569Z,9.40
2018-07-09T08:41:55.141Z,6.97
2018-07-09T08:44:22.728Z,8.40
2018-07-09T08:46:50.296Z,8.33
2018-07-09T08:49:17.843Z,6.60
2018-07-09T08:51:45.386Z,6.23
2018-07-09T08:54:13.272Z,6.33
2018-07-09T08:56:40.784Z,6.30
2018-07-09T08:59:08.368Z,6.33
2018-07-09T09:01:35.930Z,5.00
2018-07-09T09:04:03.528Z,6.23
2018-07-09T09:06:31.164Z,4.70
2018-07-09T09:08:58.739Z,5.00
2018-07-09T09:11:26.351Z,5.57
2018-07-09T09:13:54.011Z,5.47
2018-07-09T09:16:21.626Z,4.67
2018-07-09T09:18:49.446Z,4.60
2018-07-09T09:21:16.992Z,4.53
2018-07-09T09:23:44.567Z,4.50
2018-07-09T09:26:12.102Z,4.43
2018-07-09T09:28:39.943Z,5.00
2018-07-09T09:31:07.538Z,4.53
2018-07-09T09:33:35.051Z,5.20
2018-07-09T09:36:02.662Z,4.50
2018-07-09T09:38:30.233Z,4.63
2018-07-09T09:40:57.867Z,4.20
2018-07-09T09:43:25.405Z,4.70
2018-07-09T09:45:52.955Z,3.90
2018-07-09T09:48:20.540Z,4.33
2018-07-09T09:50:48.091Z,4.23
2018-07-09T09:53:15.661Z,3.80
2018-07-09T09:55:43.213Z,4.23
2018-07-09T09:58:10.773Z,4.00
2018-07-09T10:00:43.897Z,4.53
2018-07-09T10:03:11.465Z,3.50
2018-07-09T10:05:39.038Z,4.33
2018-07-09T10:08:06.561Z,4.00
2018-07-09T10:10:34.157Z,4.53
2018-07-09T10:13:01.711Z,4.23
2018-07-09T10:15:29.273Z,4.13
2018-07-09T10:17:56.919Z,3.93
2018-07-09T10:20:24.806Z,4.87
2018-07-09T10:22:52.392Z,5.50
2018-07-09T10:25:20.037Z,5.40
2018-07-09T10:27:48.582Z,4.47
2018-07-09T10:30:15.257Z,5.80
2018-07-09T10:32:42.825Z,5.07
2018-07-09T10:35:10.617Z,3.97
2018-07-09T10:37:38.235Z,4.17
2018-07-09T10:40:06.051Z,4.40
2018-07-09T10:42:33.608Z,4.50
2018-07-09T10:45:01.362Z,4.97
2018-07-09T10:47:28.960Z,4.10
2018-07-09T10:49:56.751Z,4.47
2018-07-09T10:52:24.377Z,4.70
2018-07-09T10:54:52.014Z,4.43
2018-07-09T10:57:19.959Z,4.33
2018-07-09T10:59:47.552Z,4.47
2018-07-09T11:02:15.220Z,3.73
2018-07-09T11:04:42.773Z,3.90
2018-07-09T11:07:10.403Z,4.07
2018-07-09T11:09:37.980Z,3.83
2018-07-09T11:12:05.576Z,4.03
2018-07-09T11:14:33.142Z,4.30
2018-07-09T11:17:00.701Z,3.97
2018-07-09T11:19:28.365Z,4.50
2018-07-09T11:21:55.900Z,3.97
2018-07-09T11:24:23.492Z,3.70
2018-07-09T11:26:51.072Z,3.80
2018-07-09T11:29:18.712Z,4.60
2018-07-09T11:31:46.276Z,3.67
2018-07-09T11:34:14.022Z,4.60
2018-07-09T11:36:41.629Z,4.10
2018-07-09T11:39:09.226Z,4.57
2018-07-09T11:41:36.766Z,4.23
2018-07-09T11:44:04.365Z,4.80
2018-07-09T11:46:31.948Z,4.30
2018-07-09T11:48:59.656Z,4.03
2018-07-09T11:51:27.210Z,4.03
2018-07-09T11:53:54.756Z,4.37
2018-07-09T11:56:22.510Z,4.57
2018-07-09T11:58:50.383Z,3.93
2018-07-09T12:01:17.954Z,4.97
2018-07-09T12:03:45.538Z,3.80
2018-07-09T12:06:13.132Z,4.33
2018-07-09T12:08:40.794Z,4.30
2018-07-09T12:11:08.441Z,3.93
2018-07-09T12:13:36.016Z,4.10
2018-07-09T12:16:03.606Z,4.17
2018-07-09T12:18:31.810Z,4.30
2018-07-09T12:20:59.496Z,4.57
2018-07-09T12:23:27.080Z,4.60
2018-07-09T12:25:54.633Z,4.90
2018-07-09T12:28:23.049Z,4.03
2018-07-09T12:30:50.624Z,4.43
2018-07-09T12:33:18.209Z,4.27
2018-07-09T12:35:45.758Z,4.63
2018-07-09T12:38:13.363Z,4.90
2018-07-09T12:40:40.918Z,4.50
2018-07-09T12:43:08.908Z,4.33
2018-07-09T12:45:36.516Z,4.70
2018-07-09T12:48:04.252Z,4.63
2018-07-09T12:50:31.853Z,4.77
2018-07-09T12:52:59.405Z,4.87
2018-07-09T12:55:26.985Z,5.07
2018-07-09T12:57:54.553Z,5.13
2018-07-09T13:00:22.196Z,4.80
2018-07-09T13:02:49.779Z,5.40
2018-07-09T13:05:17.359Z,4.73
2018-07-09T13:07:44.938Z,5.27
2018-07-09T13:10:12.511Z,5.10
2018-07-09T13:12:40.080Z,5.40
2018-07-09T13:15:07.653Z,5.80
2018-07-09T13:17:35.363Z,4.73
2018-07-09T13:20:03.036Z,4.47
2018-07-09T13:22:30.627Z,4.80
2018-07-09T13:24:58.160Z,4.83
2018-07-09T13:27:25.710Z,4.60
2018-07-09T13:29:53.526Z,4.40
2018-07-09T13:32:21.199Z,5.20
2018-07-09T13:34:48.777Z,4.20
2018-07-09T13:37:16.362Z,4.40
2018-07-09T13:39:43.986Z,4.67
2018-07-09T13:42:11.578Z,4.30
2018-07-09T13:44:39.176Z,5.00
2018-07-09T13:47:06.801Z,4.50
2018-07-09T13:49:34.488Z,4.63
2018-07-09T13:52:02.085Z,3.90
2018-07-09T13:54:29.777Z,4.00
2018-07-09T13:56:57.384Z,4.97
2018-07-09T13:59:25.090Z,5.17
2018-07-09T14:01:52.690Z,4.70
2018-07-09T14:04:20.256Z,4.60
2018-07-09T14:06:47.874Z,4.87
2018-07-09T14:09:15.446Z,5.30
2018-07-09T14:11:42.982Z,4.23
2018-07-09T14:14:10.579Z,4.80
2018-07-09T14:16:38.231Z,5.00
2018-07-09T14:19:17.070Z,4.40
2018-07-09T14:21:44.628Z,4.40
2018-07-09T14:24:12.176Z,5.50
2018-07-09T14:26:39.721Z,4.97
2018-07-09T14:29:07.250Z,5.57
2018-07-09T14:31:34.834Z,5.17
2018-07-09T14:34:02.442Z,3.93
2018-07-09T14:36:29.982Z,4.20
2018-07-09T14:38:57.590Z,4.60
2018-07-09T14:41:25.138Z,5.00
2018-07-09T14:43:52.702Z,4.40
2018-07-09T14:46:20.257Z,4.33
2018-07-09T14:48:47.792Z,4.30
2018-07-09T14:51:15.348Z,4.40
2018-07-09T14:53:42.934Z,4.53
2018-07-09T14:56:10.482Z,4.30
2018-07-09T14:58:38.106Z,4.00
2018-07-09T15:01:05.751Z,4.80
2018-07-09T15:03:33.329Z,4.40
2018-07-09T15:06:00.876Z,3.60
2018-07-09T15:08:28.451Z,4.70
2018-07-09T15:10:56.059Z,4.37
2018-07-09T15:13:23.669Z,4.63
2018-07-09T15:15:51.367Z,3.90
2018-07-09T15:18:18.918Z,4.63
2018-07-09T15:20:46.464Z,4.33
2018-07-09T15:23:14.089Z,4.63
2018-07-09T15:25:41.692Z,4.93
2018-07-09T15:28:09.234Z,4.37
2018-07-09T15:30:36.818Z,4.70
2018-07-09T15:33:04.473Z,5.00
2018-07-09T15:35:32.071Z,5.10
2018-07-09T15:37:59.638Z,4.87
2018-07-09T15:40:27.252Z,5.30
2018-07-09T15:42:54.847Z,3.73
2018-07-09T15:45:22.544Z,4.37
2018-07-09T15:47:50.374Z,5.33
2018-07-09T15:50:17.992Z,4.90
2018-07-09T15:52:45.566Z,4.87
2018-07-09T15:55:13.119Z,4.57
2018-07-09T15:57:40.696Z,5.00
2018-07-09T16:00:08.460Z,4.47
2018-07-09T16:02:35.954Z,4.30
2018-07-09T16:05:03.614Z,5.37
2018-07-09T16:07:31.172Z,5.10
2018-07-09T16:09:58.821Z,4.83
2018-07-09T16:12:26.490Z,4.90
2018-07-09T16:14:54.123Z,4.53
2018-07-09T16:17:21.716Z,4.40
2018-07-09T16:19:49.337Z,5.00
2018-07-09T16:22:16.920Z,4.80
2018-07-09T16:24:44.482Z,5.33
2018-07-09T16:27:12.073Z,4.93
2018-07-09T16:29:39.648Z,5.33
2018-07-09T16:32:07.196Z,5.00
2018-07-09T16:34:34.808Z,4.80
2018-07-09T16:37:02.530Z,4.83
2018-07-09T16:39:30.260Z,4.70
2018-07-09T16:41:57.887Z,5.10
2018-07-09T16:44:25.561Z,5.37
2018-07-09T16:46:53.201Z,4.80
2018-07-09T16:49:20.759Z,5.10
2018-07-09T16:51:48.399Z,4.47
2018-07-09T16:54:16.101Z,5.17
2018-07-09T16:56:43.735Z,4.70
2018-07-09T16:59:11.265Z,4.73
2018-07-09T17:01:38.814Z,4.70
2018-07-09T17:04:06.449Z,5.13
2018-07-09T17:06:34.059Z,5.23
2018-07-09T17:09:01.657Z,4.47
2018-07-09T17:11:29.297Z,4.80
2018-07-09T17:13:57.278Z,4.57
2018-07-09T17:16:24.933Z,5.90
2018-07-09T17:18:52.506Z,5.53
2018-07-09T17:21:20.109Z,5.07
2018-07-09T17:23:47.740Z,5.20
2018-07-09T17:26:15.319Z,4.83
2018-07-09T17:28:42.903Z,6.07
2018-07-09T17:31:10.496Z,6.27
2018-07-09T17:33:38.087Z,6.13
2018-07-09T17:36:05.704Z,5.73
2018-07-09T17:38:33.333Z,5.50
2018-07-09T17:41:00.925Z,5.50
2018-07-09T17:43:28.575Z,5.27
2018-07-09T17:45:56.224Z,5.47
2018-07-09T17:48:23.837Z,5.07
2018-07-09T17:50:51.385Z,4.73
2018-07-09T17:53:18.974Z,5.63
2018-07-09T17:55:46.601Z,5.20
2018-07-09T17:58:14.272Z,5.40
2018-07-09T18:00:41.907Z,5.27
2018-07-09T18:03:09.530Z,5.27
2018-07-09T18:05:37.143Z,4.63
2018-07-09T18:08:04.892Z,4.90
2018-07-09T18:10:32.442Z,4.90
2018-07-09T18:13:00.039Z,5.47
2018-07-09T18:15:27.698Z,5.17
2018-07-09T18:17:55.295Z,6.07
2018-07-09T18:20:23.088Z,5.23
2018-07-09T18:22:50.753Z,5.10
2018-07-09T18:25:18.386Z,5.50
2018-07-09T18:27:46.049Z,6.10
2018-07-09T18:30:13.680Z,6.10
2018-07-09T18:32:41.396Z,6.70
2018-07-09T18:35:09.072Z,6.00
2018-07-09T18:37:36.657Z,5.87
2018-07-09T18:40:04.344Z,6.50
2018-07-09T18:42:32.006Z,6.10
2018-07-09T18:44:59.661Z,5.83
2018-07-09T18:47:27.316Z,5.70
2018-07-09T18:49:54.985Z,5.47
2018-07-09T18:52:22.758Z,6.20
2018-07-09T18:54:50.684Z,6.70
2018-07-09T18:57:18.459Z,6.20
2018-07-09T18:59:46.125Z,6.13
2018-07-09T19:02:13.782Z,5.90
2018-07-09T19:04:41.505Z,5.70
2018-07-09T19:07:10.310Z,6.60
2018-07-09T19:09:38.771Z,5.57
2018-07-09T19:12:07.278Z,5.17
2018-07-09T19:14:43.789Z,5.80
2018-07-09T19:18:20.958Z,6.30
2018-07-09T19:21:27.291Z,5.60
2018-07-09T19:23:54.201Z,6.63
2018-07-09T19:26:20.957Z,6.50
2018-07-09T19:28:47.494Z,6.30
2018-07-09T19:31:14.079Z,5.30
2018-07-09T19:33:40.636Z,6.40
2018-07-09T19:36:08.511Z,5.70
2018-07-09T19:38:35.657Z,6.97
2018-07-09T19:41:02.208Z,9.60
2018-07-09T19:43:28.808Z,8.90
2018-07-09T19:45:55.385Z,8.00
2018-07-09T19:48:21.925Z,6.93
2018-07-09T19:50:48.432Z,7.37
2018-07-09T19:53:14.962Z,6.60
2018-07-09T19:55:41.971Z,5.77
2018-07-09T19:58:08.474Z,7.17
2018-07-09T20:00:36.472Z,6.20
2018-07-09T20:03:03.478Z,6.43
2018-07-09T20:05:30.281Z,6.37
2018-07-09T20:07:57.195Z,7.20
2018-07-09T20:10:29.290Z,6.87
2018-07-09T20:13:01.353Z,6.50
2018-07-09T20:15:33.415Z,7.30
2018-07-09T20:17:59.907Z,6.10
2018-07-09T20:20:27.374Z,7.57
2018-07-09T20:22:54.374Z,7.00
2018-07-09T20:25:20.959Z,8.30
2018-07-09T20:27:47.795Z,8.03
2018-07-09T20:30:14.336Z,7.77
2018-07-09T20:32:40.890Z,7.77
2018-07-09T20:35:07.402Z,7.50
2018-07-09T20:37:33.901Z,7.20
2018-07-09T20:40:00.422Z,6.60
2018-07-09T20:42:26.944Z,7.07
2018-07-09T20:44:53.680Z,7.10
2018-07-09T20:47:20.160Z,6.97
2018-07-09T20:49:46.734Z,7.03
2018-07-09T20:52:13.214Z,7.03
2018-07-09T20:54:39.701Z,7.00
2018-07-09T20:57:06.211Z,8.10
2018-07-09T20:59:32.664Z,8.57
2018-07-09T21:01:59.170Z,7.77
2018-07-09T21:04:26.263Z,8.77
2018-07-09T21:06:54.148Z,8.47
2018-07-09T21:09:20.921Z,7.97
2018-07-09T21:11:47.507Z,7.57
2018-07-09T21:14:13.974Z,7.73
2018-07-09T21:16:40.671Z,7.97
2018-07-09T21:19:07.495Z,8.33
2018-07-09T21:21:33.975Z,8.00
2018-07-09T21:24:00.454Z,7.93
2018-07-09T21:26:26.921Z,8.43
2018-07-09T21:28:53.562Z,8.77
2018-07-09T21:31:20.053Z,9.47
2018-07-09T21:33:46.530Z,9.17
2018-07-09T21:36:13.169Z,8.80
2018-07-09T21:38:40.486Z,8.63
2018-07-09T21:41:06.971Z,8.87
2018-07-09T21:43:33.550Z,7.73
2018-07-09T21:45:59.996Z,8.87
2018-07-09T21:48:29.795Z,8.70
2018-07-09T21:50:53.181Z,8.40
2018-07-09T21:53:20.217Z,8.90
2018-07-09T21:55:46.698Z,8.80
2018-07-09T21:58:13.167Z,9.50
2018-07-09T22:00:39.655Z,9.87
2018-07-09T22:03:06.160Z,8.13
2018-07-09T22:05:32.613Z,9.23
2018-07-09T22:07:59.083Z,8.53
2018-07-09T22:10:25.561Z,9.27
2018-07-09T22:12:52.048Z,9.20
2018-07-09T22:15:18.513Z,10.07
2018-07-09T22:17:45.000Z,10.17
2018-07-09T22:20:11.484Z,8.93
2018-07-09T22:22:37.928Z,9.10
2018-07-09T22:25:04.544Z,9.13
2018-07-09T22:27:31.494Z,10.57
2018-07-09T22:29:57.995Z,10.00
2018-07-09T22:32:25.572Z,11.70
2018-07-09T22:34:53.282Z,10.80
2018-07-09T22:37:21.281Z,11.90
2018-07-09T22:39:48.836Z,12.17
2018-07-09T22:42:16.744Z,10.77
2018-07-09T22:44:44.255Z,10.20
2018-07-09T22:47:11.790Z,10.03
2018-07-09T22:49:40.074Z,9.23
2018-07-09T22:52:07.649Z,10.37
2018-07-09T22:54:35.541Z,10.57
2018-07-09T22:57:03.122Z,11.03
2018-07-09T22:59:30.674Z,9.73
2018-07-09T23:01:58.249Z,10.40
2018-07-09T23:04:25.823Z,10.70
2018-07-09T23:06:53.414Z,10.60
2018-07-09T23:09:40.009Z,8.60
2018-07-09T23:12:17.658Z,8.70
2018-07-09T23:14:57.410Z,9.53
2018-07-09T23:17:36.153Z,8.00
2018-07-09T23:22:44.662Z,8.23
2018-07-09T23:25:11.140Z,8.87
2018-07-09T23:27:37.602Z,6.63
2018-07-09T23:30:04.074Z,7.83
2018-07-09T23:32:30.516Z,6.90
2018-07-09T23:34:56.999Z,6.83
2018-07-09T23:37:23.478Z,7.47
2018-07-09T23:39:49.922Z,7.00
2018-07-09T23:42:16.537Z,6.73
2018-07-09T23:44:42.921Z,7.53
2018-07-09T23:47:09.418Z,8.40
2018-07-09T23:49:35.880Z,9.10
2018-07-09T23:52:02.328Z,9.13
2018-07-09T23:54:29.628Z,10.07
2018-07-09T23:57:13.018Z,9.23
2018-07-09T23:59:52.051Z,9.60
